aviador You're here:

HECA Decoded Metar

CAIRO in EGYPT
Report Time2017-09-23 09:00:00
UTC Time2017-09-23 09:02:03
Flight Rules vfr VFR
Wind350° at 11 kt
W.Decomp.*RWY 05: 4.8 kt HW 9.9 kt LCW
W.Rank350° ranks 1
Current wind is above 350° avg. (7.9)
Visibility9999 m
Phenomena:N/A
Clouds:Scattered 025 Hf
Expected CloudBase > 4,400 ft AGL from Temp-Dew spread
CeilingNone
Temp28°C (ISA +13)
Dew Point17°C (51% RH)
Heat Index28.5°C
AAT26.4°C
QNH1017 hPa
Density Alt1,919 ft
Elevation243 ft
Report Wrong Elevation
Raw Report
METAR HECA 230900Z 35011KT 9999 SCT025 28/17 Q1017 NOSIG=

Extra information for HECA:More info

Metar Taf Metar & Taf Last 4 Metars F.Rules Stats Wind Profile Meteogram Temp Stats Airport Information Weather charts Add Link Nearby VenuesMetar ALERT Operation Metar Decoded Social comments